Terminal Aerodrome Forecast
Issued by NWS

Home | Current Version | Previous Version | Graphics & Text | Print | Product List | Glossary On
Versions: 1 2 3 4 5 6 7 8 9 10 11 12 13 14 15
499
FTUS43 KTOP 262325
TAFFOE
TAF
KFOE 262325Z 2700/2724 02004KT P6SM SKC
     FM270700 10004KT P6SM SCT040 SCT250
     FM271500 12009KT P6SM SCT020 BKN023
     FM271800 14009KT P6SM VCTS SCT025 BKN035CB=

USA.gov is the U.S. government's official web portal to all federal, state and local government web resources and services.